Aérodrome :
LOGIN :

S'inscrire | Disclaimer

   EN    FR    IT 

 










Légende :    VFR   VFR Marginal   IFR   IFR Intensif   IFR Très Intensif
Visi : 
Plafond : 
>= 8 km
>= 3000ft
5 à 8 km
1000 à 3000 ft
1500m à 5 km
500 à 1000 ft
800 à 1500m
200 à 500 ft
< 800m
< 200 ft
Symboles :   Orages  Brouillard  Fortes neiges  Fortes précipitations  Vent > 20 kt
SIGMETs :   Divers  Orages  Givrage  Turbulence  Onde Orograph.  Cendres Volcan.







- Altitude de l'aérodrome : 154 ft
- Code IATA : SZZ


EPSC - Szczecin Goleniow

DERNIER METAR :
  • 100430Z 27011KT 9999 FEW023 BKN044 04/02 Q1001

METARs EXPIRÉS :
  • 100400Z 27011KT 9999 FEW019 04/02 Q1000
  • 100330Z 27010KT 9999 FEW017 BKN023 04/02 Q1000
  • 100300Z 27011KT 9999 BKN024 04/02 Q1000
  • 100230Z 26008KT 9999 BKN017 OVC020 03/02 Q0999
  • 100200Z 26008KT 9999 FEW018 03/01 Q0999

TAF TAF EPSC
Valide du 10 à 00h jusqu'au 11 à 00h UTC


092330Z 1000/1024 28010KT 9999 BKN025
TEMPO 1000/1014 30020G30KT -SHRA BKN007 BKN014CB
TEMPO 1014/1024 3500 SHRASN BKN005 BKN010CB
Pas de NOTAMs connus pour ce terrain.



MET'MAP, la Météo Aéronautique d'un coup d'oeil ! - Copyright ORBIFLY Décembre 2007 - Disclaimer

ORBIFLY MET'MAP TEAM :

Programmation & Développement : Alexandra Zaïnal
Conception & Développement : Baudouin d'Aumeries
Co-Programmation & Développement : Marc-Olivier Méhu
Soutien technique & logistique : Manuel Goepfert

Contact : metmap@orbifly.com




SOURCES & CREDITS :

   NOAA